createdAt,value
2019-05-05T00:00:54.944Z,83.20
2019-05-05T00:03:34.252Z,83.40
2019-05-05T00:06:28.756Z,83.20
2019-05-05T00:09:18.265Z,83.10
2019-05-05T00:11:50.163Z,83.00
2019-05-05T00:14:37.900Z,83.00
2019-05-05T00:17:09.797Z,83.00
2019-05-05T00:19:40.027Z,83.10
2019-05-05T00:22:10.160Z,83.30
2019-05-05T00:24:40.195Z,83.20
2019-05-05T00:27:10.535Z,82.90
2019-05-05T00:29:40.828Z,83.00
2019-05-05T00:32:11.205Z,82.80
2019-05-05T00:34:41.039Z,82.80
2019-05-05T00:37:11.228Z,82.80
2019-05-05T00:39:41.397Z,82.70
2019-05-05T00:42:11.453Z,82.60
2019-05-05T00:44:41.624Z,82.60
2019-05-05T00:47:14.597Z,82.70
2019-05-05T00:49:49.104Z,83.00
2019-05-05T00:52:17.072Z,82.60
2019-05-05T00:54:47.258Z,82.60
2019-05-05T00:57:17.457Z,82.80
2019-05-05T00:59:47.631Z,82.80
2019-05-05T01:02:37.337Z,82.80
2019-05-05T01:05:12.478Z,82.60
2019-05-05T01:07:44.418Z,82.60
2019-05-05T01:10:14.729Z,82.80
2019-05-05T01:12:45.110Z,82.80
2019-05-05T01:15:15.482Z,82.50
2019-05-05T01:17:45.604Z,82.70
2019-05-05T01:20:15.971Z,82.80
2019-05-05T01:22:47.043Z,82.80
2019-05-05T01:25:17.335Z,82.80
2019-05-05T01:27:47.582Z,82.60
2019-05-05T01:30:21.819Z,82.80
2019-05-05T01:33:02.156Z,83.30
2019-05-05T01:35:33.685Z,83.40
2019-05-05T01:38:05.515Z,83.30
2019-05-05T01:40:38.174Z,83.00
2019-05-05T01:43:08.379Z,83.10
2019-05-05T01:45:39.712Z,83.10
2019-05-05T01:48:09.957Z,83.10
2019-05-05T01:50:39.997Z,83.50
2019-05-05T01:53:11.177Z,83.30
2019-05-05T01:55:41.222Z,83.50
2019-05-05T01:58:11.623Z,83.10
2019-05-05T02:00:41.481Z,83.10
2019-05-05T02:03:11.962Z,83.20
2019-05-05T02:05:42.159Z,83.40
2019-05-05T02:08:12.328Z,83.40
2019-05-05T02:10:42.542Z,83.30
2019-05-05T02:13:12.719Z,83.20
2019-05-05T02:15:44.587Z,83.20
2019-05-05T02:18:14.972Z,83.00
2019-05-05T02:20:51.200Z,82.80
2019-05-05T02:23:21.128Z,82.50
2019-05-05T02:25:51.313Z,82.60
2019-05-05T02:28:21.230Z,82.60
2019-05-05T02:30:55.005Z,82.40
2019-05-05T02:33:26.153Z,82.10
2019-05-05T02:35:56.566Z,81.90
2019-05-05T02:38:26.817Z,82.00
2019-05-05T02:40:58.450Z,81.80
2019-05-05T02:43:30.381Z,82.00
2019-05-05T02:46:15.249Z,82.10
2019-05-05T02:48:47.183Z,81.90
2019-05-05T02:51:17.832Z,81.50
2019-05-05T02:53:51.230Z,81.40
2019-05-05T02:56:25.359Z,81.30
2019-05-05T02:58:59.342Z,81.40
2019-05-05T03:01:40.327Z,81.70
2019-05-05T03:04:13.947Z,82.10
2019-05-05T03:06:46.494Z,82.00
2019-05-05T03:09:15.819Z,82.40
2019-05-05T03:11:48.316Z,82.10
2019-05-05T03:14:20.464Z,81.70
2019-05-05T03:16:51.359Z,81.90
2019-05-05T03:19:24.049Z,82.10
2019-05-05T03:21:54.845Z,82.10
2019-05-05T03:24:25.394Z,82.30
2019-05-05T03:26:55.666Z,82.50
2019-05-05T03:29:26.216Z,82.50
2019-05-05T03:31:57.438Z,82.70
2019-05-05T03:34:27.972Z,82.50
2019-05-05T03:36:58.316Z,82.50
2019-05-05T03:39:30.330Z,82.60
2019-05-05T03:42:11.516Z,82.50
2019-05-05T03:44:52.163Z,82.80
2019-05-05T03:47:24.076Z,82.90
2019-05-05T03:49:54.421Z,82.90
2019-05-05T03:52:24.667Z,82.90
2019-05-05T03:54:55.533Z,83.00
2019-05-05T03:57:26.112Z,83.10
2019-05-05T03:59:56.808Z,83.00
2019-05-05T04:02:34.579Z,82.80
2019-05-05T04:05:06.639Z,83.00
2019-05-05T04:07:36.894Z,83.00
2019-05-05T04:10:07.165Z,83.00
2019-05-05T04:12:39.612Z,82.80
2019-05-05T04:15:09.945Z,83.00
2019-05-05T04:17:53.678Z,83.00
2019-05-05T04:20:25.301Z,83.20
2019-05-05T04:22:57.940Z,83.20
2019-05-05T04:25:27.115Z,83.50
2019-05-05T04:27:57.253Z,83.70
2019-05-05T04:30:27.428Z,83.40
2019-05-05T04:32:57.559Z,83.40
2019-05-05T04:35:27.800Z,83.70
2019-05-05T04:37:57.682Z,83.60
2019-05-05T04:40:27.613Z,83.30
2019-05-05T04:42:57.694Z,83.50
2019-05-05T04:45:27.670Z,83.80
2019-05-05T04:47:59.540Z,84.00
2019-05-05T04:50:31.142Z,84.10
2019-05-05T04:53:04.585Z,84.00
2019-05-05T04:55:35.434Z,84.30
2019-05-05T04:58:05.404Z,84.20
2019-05-05T05:00:35.359Z,84.20
2019-05-05T05:03:23.946Z,83.50
2019-05-05T05:05:55.879Z,83.70
2019-05-05T05:08:25.782Z,84.00
2019-05-05T05:10:55.981Z,83.90
2019-05-05T05:13:26.180Z,84.20
2019-05-05T05:15:56.346Z,84.10
2019-05-05T05:18:26.570Z,84.10
2019-05-05T05:20:56.694Z,84.00
2019-05-05T05:23:29.511Z,84.10
2019-05-05T05:25:58.788Z,84.00
2019-05-05T05:28:28.629Z,83.90
2019-05-05T05:30:58.605Z,84.00
2019-05-05T05:33:28.758Z,84.00
2019-05-05T05:35:58.944Z,84.20
2019-05-05T05:38:28.826Z,84.30
2019-05-05T05:41:07.054Z,84.30
2019-05-05T05:43:54.186Z,84.50
2019-05-05T05:46:34.950Z,84.60
2019-05-05T05:49:24.133Z,84.00
2019-05-05T05:51:54.387Z,84.00
2019-05-05T05:54:24.293Z,84.10
2019-05-05T05:56:54.552Z,84.50
2019-05-05T05:59:24.846Z,84.70
2019-05-05T06:02:15.729Z,84.20
2019-05-05T06:04:45.895Z,84.10
2019-05-05T06:07:15.779Z,84.00
2019-05-05T06:09:45.955Z,84.50
2019-05-05T06:12:16.867Z,83.40
2019-05-05T06:14:49.992Z,82.80
2019-05-05T06:17:19.855Z,83.00
2019-05-05T06:19:53.483Z,82.40
2019-05-05T06:22:29.449Z,83.20
2019-05-05T06:24:56.478Z,82.90
2019-05-05T06:27:26.664Z,83.00
2019-05-05T06:29:56.865Z,82.10
2019-05-05T06:32:27.862Z,82.20
2019-05-05T06:34:58.146Z,81.20
2019-05-05T06:37:28.418Z,80.70
2019-05-05T06:40:00.142Z,81.30
2019-05-05T06:42:34.371Z,80.10
2019-05-05T06:45:34.248Z,80.70
2019-05-05T06:48:04.428Z,79.80
2019-05-05T06:50:34.792Z,79.20
2019-05-05T06:53:05.985Z,79.10
2019-05-05T06:55:35.911Z,78.60
2019-05-05T06:58:05.917Z,79.70
2019-05-05T07:00:36.134Z,79.00
2019-05-05T07:03:07.868Z,79.20
2019-05-05T07:05:39.812Z,79.30
2019-05-05T07:08:13.595Z,77.30
2019-05-05T07:10:44.434Z,76.70
2019-05-05T07:13:15.774Z,76.60
2019-05-05T07:15:46.451Z,76.90
2019-05-05T07:18:16.672Z,76.10
2019-05-05T07:20:46.801Z,75.40
2019-05-05T07:23:16.940Z,75.20
2019-05-05T07:25:47.222Z,74.30
2019-05-05T07:28:17.464Z,73.90
2019-05-05T07:30:47.852Z,74.80
2019-05-05T07:33:17.715Z,72.80
2019-05-05T07:36:01.379Z,73.10
2019-05-05T07:38:27.007Z,73.30
2019-05-05T07:40:57.015Z,71.40
2019-05-05T07:43:28.493Z,65.50
2019-05-05T07:45:58.376Z,66.10
2019-05-05T07:48:28.744Z,67.10
2019-05-05T07:51:01.507Z,67.40
2019-05-05T07:53:30.595Z,68.20
2019-05-05T07:56:00.682Z,66.60
2019-05-05T07:58:30.526Z,67.10
2019-05-05T08:01:00.897Z,66.50
2019-05-05T08:03:30.832Z,66.40
2019-05-05T08:06:01.141Z,65.40
2019-05-05T08:08:33.500Z,66.20
2019-05-05T08:11:04.792Z,62.30
2019-05-05T08:13:36.171Z,61.00
2019-05-05T08:16:08.208Z,62.00
2019-05-05T08:18:43.865Z,62.70
2019-05-05T08:21:14.201Z,60.10
2019-05-05T08:23:57.553Z,58.70
2019-05-05T08:26:33.689Z,57.10
2019-05-05T08:29:21.170Z,55.10
2019-05-05T08:31:58.958Z,56.10
2019-05-05T08:34:29.268Z,54.40
2019-05-05T08:36:59.900Z,52.60
2019-05-05T08:39:31.276Z,54.00
2019-05-05T08:42:04.101Z,52.90
2019-05-05T08:44:34.294Z,52.10
2019-05-05T08:47:04.644Z,51.20
2019-05-05T08:49:34.888Z,54.10
2019-05-05T08:52:05.229Z,54.20
2019-05-05T08:54:35.391Z,53.20
2019-05-05T08:57:05.775Z,51.70
2019-05-05T08:59:36.017Z,52.00
2019-05-05T09:02:07.912Z,52.60
2019-05-05T09:04:38.596Z,52.40
2019-05-05T09:07:08.894Z,51.70
2019-05-05T09:09:39.127Z,49.60
2019-05-05T09:12:10.651Z,49.40
2019-05-05T09:14:40.871Z,50.20
2019-05-05T09:17:10.709Z,50.00
2019-05-05T09:19:40.889Z,50.50
2019-05-05T09:22:10.821Z,49.80
2019-05-05T09:24:48.280Z,50.90
2019-05-05T09:27:28.283Z,51.40
2019-05-05T09:29:59.079Z,51.70
2019-05-05T09:32:35.244Z,48.40
2019-05-05T09:35:07.666Z,47.30
2019-05-05T09:37:37.866Z,46.10
2019-05-05T09:40:08.341Z,45.60
2019-05-05T09:42:38.616Z,45.00
2019-05-05T09:45:10.197Z,45.30
2019-05-05T09:47:40.614Z,46.90
2019-05-05T09:50:11.022Z,46.50
2019-05-05T09:52:41.082Z,46.50
2019-05-05T09:55:13.856Z,44.20
2019-05-05T09:57:44.343Z,43.90
2019-05-05T10:00:14.937Z,44.70
2019-05-05T10:02:45.294Z,44.20
2019-05-05T10:05:15.828Z,44.30
2019-05-05T10:07:46.293Z,43.30
2019-05-05T10:10:17.409Z,43.00
2019-05-05T10:12:48.045Z,40.30
2019-05-05T10:15:18.401Z,38.70
2019-05-05T10:17:48.558Z,38.20
2019-05-05T10:20:18.975Z,39.00
2019-05-05T10:22:51.528Z,38.60
2019-05-05T10:25:29.267Z,38.60
2019-05-05T10:27:59.319Z,36.20
2019-05-05T10:30:29.633Z,34.60
2019-05-05T10:33:00.104Z,36.60
2019-05-05T10:35:31.468Z,36.80
2019-05-05T10:38:02.634Z,37.10
2019-05-05T10:40:34.765Z,36.10
2019-05-05T10:43:06.653Z,38.50
2019-05-05T10:45:37.091Z,36.50
2019-05-05T10:48:07.328Z,36.90
2019-05-05T10:50:38.911Z,37.50
2019-05-05T10:53:09.087Z,35.50
2019-05-05T10:55:39.139Z,35.60
2019-05-05T10:58:09.502Z,37.50
2019-05-05T11:00:45.367Z,36.70
2019-05-05T11:03:23.574Z,34.60
2019-05-05T11:05:55.369Z,36.20
2019-05-05T11:08:26.056Z,38.10
2019-05-05T11:10:56.551Z,36.20
2019-05-05T11:13:26.851Z,35.90
2019-05-05T11:15:56.906Z,33.70
2019-05-05T11:18:27.371Z,36.50
2019-05-05T11:20:58.078Z,36.70
2019-05-05T11:23:28.161Z,35.90
2019-05-05T11:25:58.483Z,35.60
2019-05-05T11:28:33.775Z,36.90
2019-05-05T11:31:04.544Z,36.60
2019-05-05T11:33:51.377Z,35.40
2019-05-05T11:36:24.037Z,34.20
2019-05-05T11:38:54.510Z,29.90
2019-05-05T11:41:24.774Z,33.60
2019-05-05T11:43:55.272Z,32.70
2019-05-05T11:46:26.866Z,33.80
2019-05-05T11:48:58.026Z,34.20
2019-05-05T11:51:28.521Z,35.50
2019-05-05T11:54:18.061Z,38.50
2019-05-05T11:56:48.525Z,38.20
2019-05-05T11:59:19.332Z,38.20
2019-05-05T12:01:49.910Z,39.30
2019-05-05T12:04:20.634Z,39.00
2019-05-05T12:06:52.323Z,39.10
2019-05-05T12:09:24.747Z,37.90
2019-05-05T12:11:56.706Z,36.50
2019-05-05T12:14:29.832Z,38.00
2019-05-05T12:17:01.090Z,36.30
2019-05-05T12:19:33.519Z,35.40
2019-05-05T12:22:06.044Z,35.40
2019-05-05T12:24:38.097Z,34.50
2019-05-05T12:27:09.948Z,32.80
2019-05-05T12:29:41.603Z,32.10
2019-05-05T12:32:12.981Z,34.80
2019-05-05T12:34:44.593Z,35.20
2019-05-05T12:37:14.682Z,36.30
2019-05-05T12:39:44.675Z,36.10
2019-05-05T12:42:15.037Z,39.00
2019-05-05T12:44:47.340Z,40.30
2019-05-05T12:47:28.179Z,40.20
2019-05-05T12:49:58.575Z,41.50
2019-05-05T12:52:28.854Z,39.20
2019-05-05T12:55:01.871Z,41.00
2019-05-05T12:57:31.273Z,42.00
2019-05-05T13:00:01.677Z,41.20
2019-05-05T13:02:32.356Z,42.30
2019-05-05T13:05:04.211Z,41.70
2019-05-05T13:07:34.367Z,40.80
2019-05-05T13:10:05.866Z,40.80
2019-05-05T13:12:36.687Z,41.90
2019-05-05T13:15:08.689Z,42.30
2019-05-05T13:17:38.995Z,42.40
2019-05-05T13:20:14.052Z,44.50
2019-05-05T13:22:48.940Z,42.00
2019-05-05T13:25:26.027Z,37.90
2019-05-05T13:27:57.564Z,37.40
2019-05-05T13:30:27.593Z,38.30
2019-05-05T13:32:57.594Z,35.40
2019-05-05T13:35:27.605Z,34.20
2019-05-05T13:37:58.040Z,34.50
2019-05-05T13:40:28.494Z,33.50
2019-05-05T13:42:58.992Z,32.70
2019-05-05T13:45:30.762Z,31.70
2019-05-05T13:48:02.991Z,31.60
2019-05-05T13:50:40.465Z,30.80
2019-05-05T13:53:14.263Z,32.10
2019-05-05T13:55:46.065Z,33.00
2019-05-05T13:58:16.474Z,32.20
2019-05-05T14:00:47.794Z,30.10
2019-05-05T14:03:18.065Z,30.40
2019-05-05T14:05:48.299Z,29.10
2019-05-05T14:08:18.750Z,29.60
2019-05-05T14:10:49.235Z,30.30
2019-05-05T14:13:19.395Z,31.40
2019-05-05T14:16:09.220Z,33.50
2019-05-05T14:18:39.604Z,31.10
2019-05-05T14:21:10.150Z,31.10
2019-05-05T14:23:57.309Z,30.00
2019-05-05T14:26:28.597Z,33.30
2019-05-05T14:29:00.071Z,31.00
2019-05-05T14:31:34.241Z,30.50
2019-05-05T14:34:06.440Z,31.00
2019-05-05T14:36:40.849Z,30.50
2019-05-05T14:39:14.660Z,27.70
2019-05-05T14:41:44.770Z,28.00
2019-05-05T14:44:15.093Z,29.00
2019-05-05T14:46:45.341Z,29.20
2019-05-05T14:49:15.651Z,29.00
2019-05-05T14:51:45.849Z,30.60
2019-05-05T14:54:16.091Z,32.80
2019-05-05T14:56:46.382Z,32.90
2019-05-05T14:59:16.840Z,33.50
2019-05-05T15:01:47.833Z,33.70
2019-05-05T15:04:21.387Z,33.60
2019-05-05T15:06:54.428Z,33.40
2019-05-05T15:09:44.988Z,32.90
2019-05-05T15:12:23.728Z,33.90
2019-05-05T15:15:07.281Z,33.70
2019-05-05T15:17:38.806Z,33.00
2019-05-05T15:20:09.264Z,33.40
2019-05-05T15:22:41.070Z,32.80
2019-05-05T15:25:11.761Z,32.60
2019-05-05T15:27:42.111Z,32.70
2019-05-05T15:30:12.575Z,33.90
2019-05-05T15:32:43.828Z,31.50
2019-05-05T15:35:14.402Z,32.50
2019-05-05T15:37:46.290Z,33.90
2019-05-05T15:40:16.942Z,36.00
2019-05-05T15:42:56.201Z,34.20
2019-05-05T15:45:27.403Z,34.70
2019-05-05T15:47:57.665Z,34.40
2019-05-05T15:50:27.935Z,34.80
2019-05-05T15:52:58.443Z,33.50
2019-05-05T15:55:28.868Z,34.60
2019-05-05T15:57:59.347Z,35.00
2019-05-05T16:00:29.552Z,35.70
2019-05-05T16:03:00.020Z,36.50
2019-05-05T16:05:31.368Z,36.00
2019-05-05T16:08:01.648Z,36.20
2019-05-05T16:10:31.919Z,36.90
2019-05-05T16:13:04.337Z,36.20
2019-05-05T16:15:35.806Z,36.60
2019-05-05T16:18:22.826Z,35.40
2019-05-05T16:20:54.764Z,35.70
2019-05-05T16:23:43.593Z,37.60
2019-05-05T16:26:14.072Z,37.70
2019-05-05T16:28:44.667Z,37.40
2019-05-05T16:31:15.048Z,36.60
2019-05-05T16:33:48.448Z,36.90
2019-05-05T16:36:17.678Z,38.00
2019-05-05T16:38:47.928Z,38.20
2019-05-05T16:41:18.227Z,38.80
2019-05-05T16:43:48.428Z,39.30
2019-05-05T16:46:20.208Z,39.30
2019-05-05T16:48:50.477Z,39.30
2019-05-05T16:51:25.032Z,39.30
2019-05-05T16:53:57.627Z,40.50
2019-05-05T16:56:27.758Z,40.20
2019-05-05T16:58:58.243Z,40.00
2019-05-05T17:01:29.355Z,40.20
2019-05-05T17:04:09.167Z,40.80
2019-05-05T17:06:31.927Z,39.90
2019-05-05T17:09:04.523Z,40.10
2019-05-05T17:11:36.217Z,41.20
2019-05-05T17:14:11.161Z,40.30
2019-05-05T17:16:44.184Z,39.50
2019-05-05T17:19:19.489Z,40.00
2019-05-05T17:21:54.039Z,40.00
2019-05-05T17:24:25.383Z,40.00
2019-05-05T17:26:55.755Z,40.00
2019-05-05T17:29:25.942Z,40.90
2019-05-05T17:31:57.946Z,40.60
2019-05-05T17:34:28.439Z,41.10
2019-05-05T17:36:58.829Z,41.30
2019-05-05T17:39:30.779Z,39.90
2019-05-05T17:42:02.747Z,41.40
2019-05-05T17:44:34.812Z,41.10
2019-05-05T17:47:15.444Z,40.40
2019-05-05T17:50:04.139Z,41.90
2019-05-05T17:52:53.908Z,42.20
2019-05-05T17:55:28.164Z,41.80
2019-05-05T17:58:02.386Z,42.50
2019-05-05T18:00:34.256Z,42.80
2019-05-05T18:03:04.858Z,42.50
2019-05-05T18:05:54.517Z,43.00
2019-05-05T18:08:40.221Z,43.70
2019-05-05T18:11:28.278Z,44.40
2019-05-05T18:14:04.039Z,44.80
2019-05-05T18:16:34.295Z,44.40
2019-05-05T18:19:04.614Z,45.50
2019-05-05T18:21:34.979Z,45.20
2019-05-05T18:24:05.512Z,45.70
2019-05-05T18:26:35.772Z,47.00
2019-05-05T18:29:06.075Z,47.70
2019-05-05T18:31:36.264Z,47.90
2019-05-05T18:34:06.723Z,48.30
2019-05-05T18:36:37.017Z,48.50
2019-05-05T18:39:08.500Z,49.30
2019-05-05T18:41:47.110Z,49.00
2019-05-05T18:44:19.122Z,49.30
2019-05-05T18:46:51.030Z,49.30
2019-05-05T18:49:23.241Z,49.90
2019-05-05T18:51:53.431Z,49.60
2019-05-05T18:54:23.832Z,50.30
2019-05-05T18:56:54.166Z,50.30
2019-05-05T18:59:24.496Z,50.00
2019-05-05T19:01:58.704Z,50.10
2019-05-05T19:04:34.724Z,50.40
2019-05-05T19:07:06.722Z,50.40
2019-05-05T19:09:37.200Z,51.40
2019-05-05T19:12:10.151Z,51.80
2019-05-05T19:14:39.517Z,52.30
2019-05-05T19:17:10.139Z,52.40
2019-05-05T19:19:41.968Z,52.60
2019-05-05T19:22:16.210Z,53.50
2019-05-05T19:24:46.225Z,53.80
2019-05-05T19:27:16.646Z,54.40
2019-05-05T19:29:46.607Z,55.00
2019-05-05T19:32:16.789Z,55.50
2019-05-05T19:34:46.924Z,55.40
2019-05-05T19:37:17.245Z,55.70
2019-05-05T19:39:47.191Z,55.80
2019-05-05T19:42:17.622Z,56.00
2019-05-05T19:44:47.919Z,56.20
2019-05-05T19:47:21.327Z,56.30
2019-05-05T19:49:56.222Z,56.10
2019-05-05T19:52:26.321Z,56.00
2019-05-05T19:54:56.670Z,56.30
2019-05-05T19:57:26.983Z,57.80
2019-05-05T19:59:56.968Z,59.80
2019-05-05T20:02:26.897Z,61.50
2019-05-05T20:04:57.225Z,62.80
2019-05-05T20:07:27.343Z,64.10
2019-05-05T20:09:57.764Z,65.50
2019-05-05T20:12:28.010Z,65.50
2019-05-05T20:14:58.803Z,65.10
2019-05-05T20:17:33.703Z,65.10
2019-05-05T20:20:06.311Z,65.90
2019-05-05T20:22:36.513Z,66.10
2019-05-05T20:25:08.594Z,66.40
2019-05-05T20:27:38.629Z,66.50
2019-05-05T20:30:09.278Z,67.30
2019-05-05T20:32:47.996Z,67.90
2019-05-05T20:35:33.675Z,68.30
2019-05-05T20:38:05.188Z,68.70
2019-05-05T20:40:36.940Z,68.40
2019-05-05T20:43:07.192Z,68.30
2019-05-05T20:45:37.139Z,68.60
2019-05-05T20:48:07.364Z,68.80
2019-05-05T20:50:37.785Z,68.80
2019-05-05T20:53:07.638Z,68.80
2019-05-05T20:55:37.805Z,69.10
2019-05-05T20:58:07.868Z,69.20
2019-05-05T21:00:44.253Z,69.30
2019-05-05T21:03:14.640Z,69.70
2019-05-05T21:05:44.822Z,69.90
2019-05-05T21:08:15.078Z,70.10
2019-05-05T21:10:45.547Z,70.40
2019-05-05T21:13:17.725Z,70.60
2019-05-05T21:15:47.979Z,70.90
2019-05-05T21:18:18.312Z,71.10
2019-05-05T21:20:48.575Z,71.60
2019-05-05T21:23:24.566Z,72.00
2019-05-05T21:25:59.503Z,72.70
2019-05-05T21:28:29.560Z,72.80
2019-05-05T21:30:59.688Z,73.00
2019-05-05T21:33:29.796Z,73.00
2019-05-05T21:36:00.053Z,72.80
2019-05-05T21:38:30.268Z,72.50
2019-05-05T21:41:00.190Z,72.50
2019-05-05T21:43:30.596Z,72.40
2019-05-05T21:46:00.784Z,72.50
2019-05-05T21:48:31.059Z,72.70
2019-05-05T21:51:14.119Z,72.80
2019-05-05T21:53:48.202Z,72.90
2019-05-05T21:56:31.727Z,73.00
2019-05-05T21:59:04.034Z,73.10
2019-05-05T22:01:39.723Z,73.40
2019-05-05T22:04:06.549Z,73.40
2019-05-05T22:06:36.512Z,73.70
2019-05-05T22:09:07.217Z,74.10
2019-05-05T22:11:38.512Z,74.10
2019-05-05T22:14:08.934Z,74.40
2019-05-05T22:16:39.192Z,74.70
2019-05-05T22:19:09.131Z,75.40
2019-05-05T22:21:50.031Z,76.40
2019-05-05T22:24:21.483Z,76.50
2019-05-05T22:26:54.135Z,76.70
2019-05-05T22:29:25.485Z,76.80
2019-05-05T22:31:55.698Z,77.10
2019-05-05T22:34:26.003Z,77.60
2019-05-05T22:36:56.278Z,77.90
2019-05-05T22:39:26.483Z,77.70
2019-05-05T22:41:56.637Z,77.60
2019-05-05T22:44:26.550Z,77.50
2019-05-05T22:46:56.735Z,77.60
2019-05-05T22:49:26.558Z,77.50
2019-05-05T22:51:56.701Z,77.20
2019-05-05T22:54:26.590Z,77.40
2019-05-05T22:56:56.904Z,76.80
2019-05-05T22:59:26.826Z,76.80
2019-05-05T23:01:57.942Z,76.60
2019-05-05T23:04:45.690Z,76.40
2019-05-05T23:07:17.698Z,76.40
2019-05-05T23:09:47.912Z,76.40
2019-05-05T23:12:18.168Z,76.50
2019-05-05T23:14:48.018Z,76.40
2019-05-05T23:17:26.435Z,76.60
2019-05-05T23:20:07.269Z,76.50
2019-05-05T23:22:39.094Z,76.70
2019-05-05T23:25:16.731Z,77.20
2019-05-05T23:27:54.568Z,77.80
2019-05-05T23:30:37.852Z,77.30
2019-05-05T23:32:57.107Z,77.20
2019-05-05T23:35:26.947Z,77.10
2019-05-05T23:37:56.778Z,77.20
2019-05-05T23:40:27.486Z,77.20
2019-05-05T23:42:57.678Z,77.50
2019-05-05T23:45:27.962Z,77.40
2019-05-05T23:47:58.180Z,77.40
2019-05-05T23:50:28.451Z,77.10
2019-05-05T23:52:58.559Z,76.90
2019-05-05T23:55:28.793Z,77.30
2019-05-05T23:57:58.979Z,77.30
